Time,TemperatureF,DewpointF,PressureIn,WindDirection,WindDirectionDegrees,WindSpeedMPH,WindSpeedGustMPH,Humidity,HourlyPrecipIn,Conditions,Clouds,dailyrainin,SoftwareType,DateUTC
2013-07-19 00:01:00,78.8,72.1,29.86,WNW,298,0.0,0.0,80,0.00,,CLR,0.00,VWS V14.00,2013-07-19 04:01:00,
2013-07-19 00:03:00,78.6,71.9,29.86,WNW,298,0.0,0.0,80,0.00,,CLR,0.00,VWS V14.00,2013-07-19 04:03:00,
2013-07-19 00:08:00,78.6,71.9,29.86,WNW,298,0.0,0.0,80,0.00,,CLR,0.00,VWS V14.00,2013-07-19 04:08:00,
2013-07-19 00:13:00,78.5,71.8,29.86,WNW,298,0.0,0.0,80,0.00,,CLR,0.00,VWS V14.00,2013-07-19 04:13:00,
2013-07-19 00:18:00,78.3,71.6,29.86,WNW,298,0.0,0.0,80,0.00,,CLR,0.00,VWS V14.00,2013-07-19 04:18:00,
2013-07-19 00:23:00,78.1,71.4,29.86,WNW,298,0.0,0.0,80,0.00,,CLR,0.00,VWS V14.00,2013-07-19 04:23:00,
2013-07-19 00:28:00,78.1,71.8,29.86,WNW,298,0.0,0.0,81,0.00,,CLR,0.00,VWS V14.00,2013-07-19 04:28:00,
2013-07-19 00:33:00,77.9,71.6,29.86,WNW,298,0.0,0.0,81,0.00,,CLR,0.00,VWS V14.00,2013-07-19 04:33:00,
2013-07-19 00:38:00,77.9,71.6,29.86,WNW,298,0.0,0.0,81,0.00,,CLR,0.00,VWS V14.00,2013-07-19 04:38:00,
2013-07-19 00:43:00,77.9,71.6,29.86,WNW,298,0.0,0.0,81,0.00,,CLR,0.00,VWS V14.00,2013-07-19 04:43:00,
2013-07-19 00:48:00,77.7,71.4,29.86,WNW,298,0.0,0.0,81,0.00,,CLR,0.00,VWS V14.00,2013-07-19 04:48:00,
2013-07-19 00:53:00,77.7,71.8,29.86,WNW,298,0.0,0.0,82,0.00,,CLR,0.00,VWS V14.00,2013-07-19 04:53:00,
2013-07-19 00:58:00,77.7,71.8,29.86,WNW,298,0.0,0.0,82,0.00,,CLR,0.00,VWS V14.00,2013-07-19 04:58:00,
2013-07-19 01:03:00,77.7,72.1,29.87,WNW,298,0.0,0.0,83,0.00,,CLR,0.00,VWS V14.00,2013-07-19 05:03:00,
2013-07-19 01:08:00,77.6,72.0,29.87,WNW,298,0.0,0.0,83,0.00,,CLR,0.00,VWS V14.00,2013-07-19 05:08:00,
2013-07-19 01:13:00,77.6,72.0,29.87,WNW,298,0.0,0.0,83,0.00,,CLR,0.00,VWS V14.00,2013-07-19 05:13:00,
2013-07-19 01:18:00,77.6,72.4,29.87,WNW,298,0.0,0.0,84,0.00,,CLR,0.00,VWS V14.00,2013-07-19 05:18:00,
2013-07-19 01:23:00,77.4,72.2,29.87,WNW,298,0.0,0.0,84,0.00,,CLR,0.00,VWS V14.00,2013-07-19 05:23:00,
2013-07-19 01:28:00,77.4,72.2,29.87,WNW,298,0.0,0.0,84,0.00,,CLR,0.00,VWS V14.00,2013-07-19 05:28:00,
2013-07-19 01:33:00,77.4,72.2,29.87,WNW,298,0.0,0.0,84,0.00,,CLR,0.00,VWS V14.00,2013-07-19 05:33:00,
2013-07-19 01:39:00,77.4,72.5,29.87,WNW,298,0.0,0.0,85,0.00,,CLR,0.00,VWS V14.00,2013-07-19 05:39:00,
2013-07-19 01:44:00,77.4,72.5,29.87,WNW,298,0.0,0.0,85,0.00,,CLR,0.00,VWS V14.00,2013-07-19 05:44:00,
2013-07-19 01:49:00,77.2,72.3,29.87,WNW,298,0.0,0.0,85,0.00,,CLR,0.00,VWS V14.00,2013-07-19 05:49:00,
2013-07-19 01:54:00,77.4,72.5,29.87,WNW,298,0.0,0.0,85,0.00,,CLR,0.00,VWS V14.00,2013-07-19 05:54:00,
2013-07-19 01:59:00,77.4,72.9,29.87,WNW,298,0.0,0.0,86,0.00,,CLR,0.00,VWS V14.00,2013-07-19 05:59:00,
2013-07-19 02:04:00,77.6,73.1,29.87,WNW,298,0.0,0.0,86,0.00,,CLR,0.00,VWS V14.00,2013-07-19 06:04:00,
2013-07-19 02:09:00,77.6,73.4,29.87,WNW,298,0.0,0.0,87,0.00,,CLR,0.00,VWS V14.00,2013-07-19 06:09:00,
2013-07-19 02:14:00,77.6,73.4,29.87,WNW,298,0.0,0.0,87,0.00,,CLR,0.00,VWS V14.00,2013-07-19 06:14:00,
2013-07-19 02:19:00,77.6,73.4,29.86,WNW,298,0.0,0.0,87,0.00,,CLR,0.00,VWS V14.00,2013-07-19 06:19:00,
2013-07-19 02:24:00,77.6,73.4,29.86,WNW,298,0.0,0.0,87,0.00,,CLR,0.00,VWS V14.00,2013-07-19 06:24:00,
2013-07-19 02:29:00,77.4,73.2,29.86,WNW,298,0.0,0.0,87,0.00,,CLR,0.00,VWS V14.00,2013-07-19 06:29:00,
2013-07-19 02:34:00,77.4,73.2,29.86,WNW,298,0.0,0.0,87,0.00,,BKN060,0.00,VWS V14.00,2013-07-19 06:34:00,
2013-07-19 02:39:00,77.4,73.2,29.86,WNW,298,0.0,0.0,87,0.00,,BKN060,0.00,VWS V14.00,2013-07-19 06:39:00,
2013-07-19 02:44:00,77.2,73.0,29.86,WNW,298,0.0,0.0,87,0.00,,BKN060,0.00,VWS V14.00,2013-07-19 06:44:00,
2013-07-19 02:49:00,77.0,72.8,29.86,WNW,298,0.0,0.0,87,0.00,,BKN060,0.00,VWS V14.00,2013-07-19 06:49:00,
2013-07-19 02:54:00,77.0,72.8,29.86,WNW,298,0.0,0.0,87,0.00,,BKN060,0.00,VWS V14.00,2013-07-19 06:54:00,
2013-07-19 02:59:00,76.8,72.6,29.86,WNW,298,0.0,0.0,87,0.00,,BKN060,0.00,VWS V14.00,2013-07-19 06:59:00,
2013-07-19 03:04:00,76.7,72.5,29.86,WNW,298,0.0,0.0,87,0.00,,BKN060,0.00,VWS V14.00,2013-07-19 07:04:00,
2013-07-19 03:09:00,76.5,72.3,29.86,WNW,298,0.0,0.0,87,0.00,,BKN060,0.00,VWS V14.00,2013-07-19 07:09:00,
2013-07-19 03:14:00,76.5,72.3,29.86,WNW,298,0.0,0.0,87,0.00,,BKN060,0.00,VWS V14.00,2013-07-19 07:14:00,
2013-07-19 03:19:00,76.3,72.2,29.85,WNW,298,0.0,0.0,87,0.00,,BKN060,0.00,VWS V14.00,2013-07-19 07:19:00,
2013-07-19 03:24:00,76.3,72.5,29.85,WNW,298,0.0,0.0,88,0.00,,BKN060,0.00,VWS V14.00,2013-07-19 07:24:00,
2013-07-19 03:29:00,76.1,72.3,29.85,WNW,298,0.0,0.0,88,0.00,,BKN060,0.00,VWS V14.00,2013-07-19 07:29:00,
2013-07-19 03:34:00,76.1,72.3,29.85,WNW,298,0.0,0.0,88,0.00,,CLR,0.00,VWS V14.00,2013-07-19 07:34:00,
2013-07-19 03:39:00,76.1,72.3,29.85,WNW,298,0.0,0.0,88,0.00,,CLR,0.00,VWS V14.00,2013-07-19 07:39:00,
2013-07-19 03:44:00,76.0,72.5,29.85,WNW,298,0.0,0.0,89,0.00,,CLR,0.00,VWS V14.00,2013-07-19 07:44:00,
2013-07-19 03:49:00,76.0,72.5,29.85,WNW,298,0.0,0.0,89,0.00,,CLR,0.00,VWS V14.00,2013-07-19 07:49:00,
2013-07-19 03:54:00,75.8,72.3,29.85,WNW,298,0.0,0.0,89,0.00,,CLR,0.00,VWS V14.00,2013-07-19 07:54:00,
2013-07-19 03:59:00,75.8,72.3,29.85,WNW,298,0.0,0.0,89,0.00,,CLR,0.00,VWS V14.00,2013-07-19 07:59:00,
2013-07-19 04:04:00,75.8,72.3,29.84,WNW,298,0.0,0.0,89,0.00,,CLR,0.00,VWS V14.00,2013-07-19 08:04:00,
2013-07-19 04:09:00,75.6,72.1,29.84,WNW,298,0.0,0.0,89,0.00,,CLR,0.00,VWS V14.00,2013-07-19 08:09:00,
2013-07-19 04:14:00,75.6,72.1,29.84,WNW,298,0.0,0.0,89,0.00,,CLR,0.00,VWS V14.00,2013-07-19 08:14:00,
2013-07-19 04:19:00,75.4,71.9,29.84,WNW,298,0.0,0.0,89,0.00,,CLR,0.00,VWS V14.00,2013-07-19 08:19:00,
2013-07-19 04:24:00,75.4,71.9,29.84,WNW,298,0.0,0.0,89,0.00,,CLR,0.00,VWS V14.00,2013-07-19 08:24:00,
2013-07-19 04:29:00,75.3,71.8,29.84,WNW,298,0.0,0.0,89,0.00,,CLR,0.00,VWS V14.00,2013-07-19 08:29:00,
2013-07-19 04:34:00,75.3,71.8,29.84,WNW,298,0.0,0.0,89,0.00,,CLR,0.00,VWS V14.00,2013-07-19 08:34:00,
2013-07-19 04:39:00,75.3,71.8,29.84,WNW,298,0.0,0.0,89,0.00,,CLR,0.00,VWS V14.00,2013-07-19 08:39:00,
2013-07-19 04:44:00,75.1,71.6,29.84,WNW,298,0.0,0.0,89,0.00,,CLR,0.00,VWS V14.00,2013-07-19 08:44:00,
2013-07-19 04:49:00,75.1,72.0,29.84,WNW,298,0.0,0.0,90,0.00,,CLR,0.00,VWS V14.00,2013-07-19 08:49:00,
2013-07-19 04:54:00,75.1,72.0,29.84,WNW,298,0.0,0.0,90,0.00,,CLR,0.00,VWS V14.00,2013-07-19 08:54:00,
2013-07-19 04:59:00,74.9,71.8,29.84,WNW,298,0.0,0.0,90,0.00,,CLR,0.00,VWS V14.00,2013-07-19 08:59:00,
2013-07-19 05:04:00,74.9,71.8,29.84,WNW,298,0.0,0.0,90,0.00,,CLR,0.00,VWS V14.00,2013-07-19 09:04:00,
2013-07-19 05:10:00,74.9,71.8,29.84,WNW,298,0.0,0.0,90,0.00,,CLR,0.00,VWS V14.00,2013-07-19 09:10:00,
2013-07-19 05:15:00,74.7,71.6,29.84,WNW,298,0.0,0.0,90,0.00,,CLR,0.00,VWS V14.00,2013-07-19 09:15:00,
2013-07-19 05:20:00,74.7,71.6,29.84,WNW,298,0.0,0.0,90,0.00,,CLR,0.00,VWS V14.00,2013-07-19 09:20:00,
2013-07-19 05:25:00,74.7,71.6,29.84,WNW,298,0.0,0.0,90,0.00,,CLR,0.00,VWS V14.00,2013-07-19 09:25:00,
2013-07-19 05:30:00,74.6,71.5,29.84,WNW,298,0.0,0.0,90,0.00,,CLR,0.00,VWS V14.00,2013-07-19 09:30:00,
2013-07-19 05:35:00,74.6,71.5,29.84,WNW,298,0.0,0.0,90,0.00,,CLR,0.00,VWS V14.00,2013-07-19 09:35:00,
2013-07-19 05:40:00,74.4,71.6,29.84,WNW,298,0.0,0.0,91,0.00,,CLR,0.00,VWS V14.00,2013-07-19 09:40:00,
2013-07-19 05:45:00,74.4,71.6,29.84,WNW,298,0.0,0.0,91,0.00,,CLR,0.00,VWS V14.00,2013-07-19 09:45:00,
2013-07-19 05:50:00,74.4,71.6,29.84,WNW,298,0.0,0.0,91,0.00,,CLR,0.00,VWS V14.00,2013-07-19 09:50:00,
2013-07-19 05:55:00,74.6,71.8,29.84,WNW,298,0.0,0.0,91,0.00,,CLR,0.00,VWS V14.00,2013-07-19 09:55:00,
2013-07-19 06:00:00,74.7,72.2,29.84,South,184,0.0,1.0,92,0.00,,CLR,0.00,VWS V14.00,2013-07-19 10:00:00,
2013-07-19 06:05:00,74.9,72.4,29.84,South,171,0.0,1.0,92,0.00,,CLR,0.00,VWS V14.00,2013-07-19 10:05:00,
2013-07-19 06:10:00,74.9,72.4,29.84,South,171,0.0,1.0,92,0.00,,CLR,0.00,VWS V14.00,2013-07-19 10:10:00,
2013-07-19 06:15:00,75.1,72.6,29.84,South,171,0.0,1.0,92,0.00,,CLR,0.00,VWS V14.00,2013-07-19 10:15:00,
2013-07-19 06:20:00,75.1,72.6,29.84,South,171,0.0,0.0,92,0.00,,CLR,0.00,VWS V14.00,2013-07-19 10:20:00,
2013-07-19 06:25:00,75.1,72.6,29.84,South,171,0.0,0.0,92,0.00,,CLR,0.00,VWS V14.00,2013-07-19 10:25:00,
2013-07-19 06:30:00,75.1,72.6,29.84,South,171,0.0,0.0,92,0.00,,CLR,0.00,VWS V14.00,2013-07-19 10:30:00,
2013-07-19 06:35:00,75.1,72.6,29.84,South,171,0.0,0.0,92,0.00,,,0.00,VWS V14.00,2013-07-19 10:35:00,
2013-07-19 06:40:00,75.1,72.6,29.84,South,171,0.0,0.0,92,0.00,,,0.00,VWS V14.00,2013-07-19 10:40:00,
2013-07-19 06:45:00,75.1,72.6,29.84,South,171,0.0,0.0,92,0.00,,,0.00,VWS V14.00,2013-07-19 10:45:00,
2013-07-19 06:50:00,75.1,72.6,29.84,South,171,0.0,0.0,92,0.00,,,0.00,VWS V14.00,2013-07-19 10:50:00,
2013-07-19 06:55:00,75.1,72.6,29.84,South,171,0.0,0.0,92,0.00,,,0.00,VWS V14.00,2013-07-19 10:55:00,
2013-07-19 07:00:00,75.1,72.6,29.84,South,171,0.0,0.0,92,0.00,,,0.00,VWS V14.00,2013-07-19 11:00:00,
2013-07-19 07:05:00,75.3,72.8,29.84,South,171,0.0,0.0,92,0.00,,,0.00,VWS V14.00,2013-07-19 11:05:00,
2013-07-19 07:10:00,75.3,72.8,29.84,South,171,0.0,0.0,92,0.00,,,0.00,VWS V14.00,2013-07-19 11:10:00,
2013-07-19 07:15:00,75.3,72.8,29.84,South,171,0.0,0.0,92,0.00,,,0.00,VWS V14.00,2013-07-19 11:15:00,
2013-07-19 07:20:00,75.3,72.8,29.84,South,171,0.0,0.0,92,0.00,,,0.00,VWS V14.00,2013-07-19 11:20:00,
2013-07-19 07:25:00,75.4,72.9,29.84,South,171,0.0,0.0,92,0.00,,,0.00,VWS V14.00,2013-07-19 11:25:00,
2013-07-19 07:30:00,75.4,72.9,29.84,South,171,0.0,0.0,92,0.00,,,0.00,VWS V14.00,2013-07-19 11:30:00,
2013-07-19 07:35:00,75.6,73.1,29.84,South,171,0.0,0.0,92,0.00,,,0.00,VWS V14.00,2013-07-19 11:35:00,
2013-07-19 07:40:00,75.8,73.3,29.84,South,171,0.0,0.0,92,0.00,,,0.00,VWS V14.00,2013-07-19 11:40:00,
2013-07-19 07:45:00,76.0,73.5,29.84,South,171,0.0,0.0,92,0.00,,,0.00,VWS V14.00,2013-07-19 11:45:00,
2013-07-19 07:50:00,76.1,73.6,29.84,South,170,0.0,1.0,92,0.00,,,0.00,VWS V14.00,2013-07-19 11:50:00,
2013-07-19 07:56:00,76.5,73.7,29.84,South,170,0.0,0.0,91,0.00,,,0.00,VWS V14.00,2013-07-19 11:56:00,
2013-07-19 08:01:00,77.0,73.5,29.85,South,170,0.0,0.0,89,0.00,,,0.00,VWS V14.00,2013-07-19 12:01:00,
2013-07-19 08:06:00,77.6,73.4,29.85,South,170,0.0,0.0,87,0.00,,,0.00,VWS V14.00,2013-07-19 12:06:00,
2013-07-19 08:11:00,78.3,73.4,29.85,South,170,0.0,0.0,85,0.00,,,0.00,VWS V14.00,2013-07-19 12:11:00,
2013-07-19 08:16:00,78.6,73.0,29.85,West,267,0.0,0.0,83,0.00,,,0.00,VWS V14.00,2013-07-19 12:16:00,
2013-07-19 08:21:00,78.8,72.8,29.85,West,267,0.0,0.0,82,0.00,,,0.00,VWS V14.00,2013-07-19 12:21:00,
2013-07-19 08:26:00,79.2,72.9,29.85,West,267,0.0,1.0,81,0.00,,,0.00,VWS V14.00,2013-07-19 12:26:00,
2013-07-19 08:31:00,79.6,73.3,29.85,West,267,0.0,0.0,81,0.00,,,0.00,VWS V14.00,2013-07-19 12:31:00,
2013-07-19 08:36:00,79.8,73.4,29.85,West,267,0.0,1.0,81,0.00,,CLR,0.00,VWS V14.00,2013-07-19 12:36:00,
2013-07-19 08:41:00,80.3,73.6,29.85,West,267,0.0,1.0,80,0.00,,CLR,0.00,VWS V14.00,2013-07-19 12:41:00,
2013-07-19 08:46:00,80.5,73.4,29.85,West,267,1.0,1.0,79,0.00,,CLR,0.00,VWS V14.00,2013-07-19 12:46:00,
2013-07-19 08:51:00,80.9,73.4,29.85,West,267,0.0,1.0,78,0.00,,CLR,0.00,VWS V14.00,2013-07-19 12:51:00,
2013-07-19 08:56:00,81.2,73.3,29.85,West,267,1.0,1.0,77,0.00,,CLR,0.00,VWS V14.00,2013-07-19 12:56:00,
2013-07-19 09:01:00,81.4,72.3,29.84,WNW,293,0.0,1.0,74,0.00,,CLR,0.00,VWS V14.00,2013-07-19 13:01:00,
2013-07-19 09:06:00,81.8,72.7,29.84,WNW,289,3.0,3.0,74,0.00,,CLR,0.00,VWS V14.00,2013-07-19 13:06:00,
2013-07-19 09:11:00,82.2,72.3,29.84,SW,217,2.0,2.0,72,0.00,,CLR,0.00,VWS V14.00,2013-07-19 13:11:00,
2013-07-19 09:16:00,82.6,73.1,29.84,SW,218,5.0,5.0,73,0.00,,CLR,0.00,VWS V14.00,2013-07-19 13:16:00,
2013-07-19 09:21:00,82.8,72.4,29.84,SSE,151,3.0,4.0,71,0.00,,CLR,0.00,VWS V14.00,2013-07-19 13:21:00,
2013-07-19 09:26:00,83.2,73.2,29.84,West,271,0.0,2.0,72,0.00,,CLR,0.00,VWS V14.00,2013-07-19 13:26:00,
2013-07-19 09:31:00,83.4,73.0,29.84,West,281,1.0,2.0,71,0.00,,CLR,0.00,VWS V14.00,2013-07-19 13:31:00,
2013-07-19 09:36:00,83.8,73.0,29.84,West,281,2.0,3.0,70,0.00,,CLR,0.00,VWS V14.00,2013-07-19 13:36:00,
2013-07-19 09:41:00,84.0,73.6,29.84,West,281,3.0,3.0,71,0.00,,CLR,0.00,VWS V14.00,2013-07-19 13:41:00,
2013-07-19 09:46:00,84.1,72.8,29.84,West,277,1.0,2.0,69,0.00,,CLR,0.00,VWS V14.00,2013-07-19 13:46:00,
2013-07-19 09:51:00,84.5,73.7,29.84,WSW,241,3.0,3.0,70,0.00,,CLR,0.00,VWS V14.00,2013-07-19 13:51:00,
2013-07-19 09:56:00,84.5,72.8,29.84,WNW,293,3.0,4.0,68,0.00,,CLR,0.00,VWS V14.00,2013-07-19 13:56:00,
2013-07-19 10:01:00,84.7,73.4,29.84,WNW,290,0.0,2.0,69,0.00,,CLR,0.00,VWS V14.00,2013-07-19 14:01:00,
2013-07-19 10:06:00,84.9,74.0,29.84,WNW,284,3.0,6.0,70,0.00,,CLR,0.00,VWS V14.00,2013-07-19 14:06:00,
2013-07-19 10:11:00,85.1,72.9,29.84,WNW,283,3.0,9.0,67,0.00,,CLR,0.00,VWS V14.00,2013-07-19 14:11:00,
2013-07-19 10:16:00,85.5,73.7,29.83,West,263,3.0,3.0,68,0.00,,CLR,0.00,VWS V14.00,2013-07-19 14:16:00,
2013-07-19 10:21:00,85.5,72.8,29.83,West,272,2.0,3.0,66,0.00,,CLR,0.00,VWS V14.00,2013-07-19 14:21:00,
2013-07-19 10:26:00,85.7,73.5,29.83,SW,233,0.0,2.0,67,0.00,,CLR,0.00,VWS V14.00,2013-07-19 14:26:00,
2013-07-19 10:31:00,85.9,74.1,29.83,WNW,282,4.0,4.0,68,0.00,,CLR,0.00,VWS V14.00,2013-07-19 14:31:00,
2013-07-19 10:36:00,85.9,74.1,29.83,WNW,284,3.0,3.0,68,0.00,,CLR,0.00,VWS V14.00,2013-07-19 14:36:00,
2013-07-19 10:41:00,86.1,73.0,29.83,WNW,291,2.0,3.0,65,0.00,,CLR,0.00,VWS V14.00,2013-07-19 14:41:00,
2013-07-19 10:46:00,86.3,72.7,29.83,WNW,292,3.0,4.0,64,0.00,,CLR,0.00,VWS V14.00,2013-07-19 14:46:00,
2013-07-19 10:51:00,86.5,72.4,29.83,WNW,286,2.0,3.0,63,0.00,,CLR,0.00,VWS V14.00,2013-07-19 14:51:00,
2013-07-19 10:56:00,86.7,73.1,29.83,SW,234,2.0,3.0,64,0.00,,CLR,0.00,VWS V14.00,2013-07-19 14:56:00,
2013-07-19 11:01:00,87.0,72.9,29.83,WSW,246,1.0,2.0,63,0.00,,CLR,0.00,VWS V14.00,2013-07-19 15:01:00,
2013-07-19 11:06:00,87.2,73.6,29.83,WNW,284,1.0,5.0,64,0.00,,CLR,0.00,VWS V14.00,2013-07-19 15:06:00,
2013-07-19 11:11:00,87.4,72.8,29.83,WNW,284,2.0,3.0,62,0.00,,CLR,0.00,VWS V14.00,2013-07-19 15:11:00,
2013-07-19 11:16:00,87.6,72.5,29.82,West,276,5.0,5.0,61,0.00,,CLR,0.00,VWS V14.00,2013-07-19 15:16:00,
2013-07-19 11:21:00,88.0,73.8,29.82,West,278,0.0,2.0,63,0.00,,CLR,0.00,VWS V14.00,2013-07-19 15:21:00,
2013-07-19 11:26:00,88.0,73.8,29.82,SSW,198,1.0,3.0,63,0.00,,CLR,0.00,VWS V14.00,2013-07-19 15:26:00,
2013-07-19 11:31:00,88.0,72.9,29.82,WNW,296,7.0,9.0,61,0.00,,CLR,0.00,VWS V14.00,2013-07-19 15:31:00,
2013-07-19 11:36:00,88.2,73.1,29.82,WNW,294,0.0,5.0,61,0.00,,CLR,0.00,VWS V14.00,2013-07-19 15:36:00,
2013-07-19 11:41:00,88.2,73.6,29.82,WSW,237,1.0,2.0,62,0.00,,CLR,0.00,VWS V14.00,2013-07-19 15:41:00,
2013-07-19 11:46:00,88.4,73.7,29.81,WSW,250,0.0,2.0,62,0.00,,CLR,0.00,VWS V14.00,2013-07-19 15:46:00,
2013-07-19 11:51:00,88.6,75.3,29.81,WSW,241,0.0,2.0,65,0.00,,CLR,0.00,VWS V14.00,2013-07-19 15:51:00,
2013-07-19 11:56:00,88.6,72.9,29.81,West,270,5.0,5.0,60,0.00,,CLR,0.00,VWS V14.00,2013-07-19 15:56:00,
2013-07-19 12:01:00,88.8,74.1,29.81,West,271,1.0,3.0,62,0.00,,CLR,0.00,VWS V14.00,2013-07-19 16:01:00,
2013-07-19 12:06:00,89.0,73.8,29.81,WNW,291,2.0,3.0,61,0.00,,CLR,0.00,VWS V14.00,2013-07-19 16:06:00,
2013-07-19 12:11:00,89.5,73.8,29.81,West,263,1.0,2.0,60,0.00,,CLR,0.00,VWS V14.00,2013-07-19 16:11:00,
2013-07-19 12:16:00,89.5,75.2,29.80,West,267,0.0,2.0,63,0.00,,CLR,0.00,VWS V14.00,2013-07-19 16:16:00,
2013-07-19 12:21:00,89.5,73.8,29.80,WNW,285,2.0,3.0,60,0.00,,CLR,0.00,VWS V14.00,2013-07-19 16:21:00,
2013-07-19 12:26:00,89.3,73.1,29.80,WNW,292,1.0,3.0,59,0.00,,CLR,0.00,VWS V14.00,2013-07-19 16:26:00,
2013-07-19 12:31:00,89.3,73.6,29.80,WSW,253,1.0,4.0,60,0.00,,CLR,0.00,VWS V14.00,2013-07-19 16:31:00,
2013-07-19 12:37:00,89.5,74.3,29.80,SW,214,1.0,2.0,61,0.00,,CLR,0.00,VWS V14.00,2013-07-19 16:37:00,
2013-07-19 12:42:00,89.9,74.2,29.80,SSW,209,2.0,3.0,60,0.00,,CLR,0.00,VWS V14.00,2013-07-19 16:42:00,
2013-07-19 12:47:00,90.1,74.3,29.79,WSW,242,2.0,3.0,60,0.00,,CLR,0.00,VWS V14.00,2013-07-19 16:47:00,
2013-07-19 12:52:00,90.3,76.0,29.79,SW,231,3.0,5.0,63,0.00,,CLR,0.00,VWS V14.00,2013-07-19 16:52:00,
2013-07-19 12:57:00,90.7,75.4,29.79,SW,219,3.0,3.0,61,0.00,,CLR,0.00,VWS V14.00,2013-07-19 16:57:00,
2013-07-19 13:02:00,90.7,73.4,29.78,WNW,288,6.0,6.0,57,0.00,,CLR,0.00,VWS V14.00,2013-07-19 17:02:00,
2013-07-19 13:07:00,90.7,73.9,29.78,West,265,1.0,3.0,58,0.00,,CLR,0.00,VWS V14.00,2013-07-19 17:07:00,
2013-07-19 13:12:00,91.0,74.2,29.78,East,87,4.0,4.0,58,0.00,,CLR,0.00,VWS V14.00,2013-07-19 17:12:00,
2013-07-19 13:17:00,90.7,72.3,29.78,West,280,1.0,9.0,55,0.00,,CLR,0.00,VWS V14.00,2013-07-19 17:17:00,
2013-07-19 13:22:00,90.3,71.9,29.78,West,267,6.0,7.0,55,0.00,,CLR,0.00,VWS V14.00,2013-07-19 17:22:00,
2013-07-19 13:27:00,89.9,72.1,29.78,West,271,4.0,5.0,56,0.00,,CLR,0.00,VWS V14.00,2013-07-19 17:27:00,
2013-07-19 13:32:00,89.7,71.9,29.78,West,271,3.0,7.0,56,0.00,,CLR,0.00,VWS V14.00,2013-07-19 17:32:00,
2013-07-19 13:37:00,89.7,72.4,29.78,West,269,1.0,2.0,57,0.00,,SCT050,0.00,VWS V14.00,2013-07-19 17:37:00,
2013-07-19 13:42:00,90.3,73.0,29.78,WNW,295,4.0,4.0,57,0.00,,SCT050,0.00,VWS V14.00,2013-07-19 17:42:00,
2013-07-19 13:47:00,90.5,71.6,29.77,West,275,2.0,4.0,54,0.00,,SCT050,0.00,VWS V14.00,2013-07-19 17:47:00,
2013-07-19 13:52:00,91.0,73.1,29.77,West,281,5.0,5.0,56,0.00,,SCT050,0.00,VWS V14.00,2013-07-19 17:52:00,
2013-07-19 13:57:00,90.7,72.3,29.77,West,269,3.0,5.0,55,0.00,,SCT050,0.00,VWS V14.00,2013-07-19 17:57:00,
2013-07-19 14:02:00,91.0,71.5,29.76,West,267,2.0,5.0,53,0.00,,SCT050,0.00,VWS V14.00,2013-07-19 18:02:00,
2013-07-19 14:07:00,91.2,73.3,29.76,West,269,1.0,2.0,56,0.00,,SCT050,0.00,VWS V14.00,2013-07-19 18:07:00,
2013-07-19 14:12:00,91.2,71.7,29.76,WSW,256,8.0,8.0,53,0.00,,SCT050,0.00,VWS V14.00,2013-07-19 18:12:00,
2013-07-19 14:17:00,91.6,72.1,29.76,West,262,2.0,3.0,53,0.00,,SCT050,0.00,VWS V14.00,2013-07-19 18:17:00,
2013-07-19 14:22:00,91.2,73.3,29.76,NW,324,2.0,4.0,56,0.00,,SCT050,0.00,VWS V14.00,2013-07-19 18:22:00,
2013-07-19 14:27:00,91.2,72.8,29.76,West,278,5.0,5.0,55,0.00,,SCT050,0.00,VWS V14.00,2013-07-19 18:27:00,
2013-07-19 14:32:00,91.0,73.1,29.75,West,280,1.0,4.0,56,0.00,,SCT050,0.00,VWS V14.00,2013-07-19 18:32:00,
2013-07-19 14:37:00,90.7,72.9,29.75,WSW,252,1.0,4.0,56,0.00,,SCT060,0.00,VWS V14.00,2013-07-19 18:37:00,
2013-07-19 14:42:00,91.0,73.7,29.75,NW,308,2.0,7.0,57,0.00,,SCT060,0.00,VWS V14.00,2013-07-19 18:42:00,
2013-07-19 14:47:00,91.0,72.6,29.75,WSW,248,2.0,5.0,55,0.00,,SCT060,0.00,VWS V14.00,2013-07-19 18:47:00,
2013-07-19 14:52:00,91.2,72.8,29.75,West,269,3.0,3.0,55,0.00,,SCT060,0.00,VWS V14.00,2013-07-19 18:52:00,
2013-07-19 14:57:00,91.4,73.0,29.75,WNW,284,1.0,3.0,55,0.00,,SCT060,0.00,VWS V14.00,2013-07-19 18:57:00,
2013-07-19 15:02:00,91.6,74.2,29.73,WNW,288,2.0,3.0,57,0.00,,SCT060,0.00,VWS V14.00,2013-07-19 19:02:00,
2013-07-19 15:07:00,91.6,73.2,29.73,WNW,287,2.0,3.0,55,0.00,,SCT060,0.00,VWS V14.00,2013-07-19 19:07:00,
2013-07-19 15:12:00,91.8,73.3,29.73,WSW,253,1.0,3.0,55,0.00,,SCT060,0.00,VWS V14.00,2013-07-19 19:12:00,
2013-07-19 15:17:00,91.8,73.9,29.73,WSW,243,2.0,5.0,56,0.00,,SCT060,0.00,VWS V14.00,2013-07-19 19:17:00,
2013-07-19 15:22:00,91.8,74.4,29.73,SW,229,1.0,3.0,57,0.00,,SCT060,0.00,VWS V14.00,2013-07-19 19:22:00,
2013-07-19 15:27:00,91.4,73.0,29.73,WSW,244,0.0,2.0,55,0.00,,SCT060,0.00,VWS V14.00,2013-07-19 19:27:00,
2013-07-19 15:32:00,91.2,72.2,29.73,West,260,1.0,4.0,54,0.00,,SCT060,0.00,VWS V14.00,2013-07-19 19:32:00,
2013-07-19 15:37:00,91.0,72.6,29.73,West,266,5.0,7.0,55,0.00,,CLR,0.00,VWS V14.00,2013-07-19 19:37:00,
2013-07-19 15:42:00,91.0,73.1,29.73,SW,217,3.0,4.0,56,0.00,,CLR,0.00,VWS V14.00,2013-07-19 19:42:00,
2013-07-19 15:47:00,91.0,73.1,29.72,WSW,240,3.0,4.0,56,0.00,,CLR,0.00,VWS V14.00,2013-07-19 19:47:00,
2013-07-19 15:52:00,91.2,72.2,29.72,WNW,283,2.0,4.0,54,0.00,,CLR,0.00,VWS V14.00,2013-07-19 19:52:00,
2013-07-19 15:58:00,91.2,72.8,29.72,WSW,244,1.0,3.0,55,0.00,,CLR,0.00,VWS V14.00,2013-07-19 19:58:00,
2013-07-19 16:03:00,91.4,71.9,29.72,WSW,244,1.0,4.0,53,0.00,,CLR,0.00,VWS V14.00,2013-07-19 20:03:00,
2013-07-19 16:08:00,91.4,75.1,29.72,WNW,292,3.0,4.0,59,0.00,,CLR,0.00,VWS V14.00,2013-07-19 20:08:00,
2013-07-19 16:13:00,91.4,72.4,29.72,SW,235,1.0,4.0,54,0.00,,CLR,0.00,VWS V14.00,2013-07-19 20:13:00,
2013-07-19 16:18:00,91.2,71.7,29.71,West,269,4.0,6.0,53,0.00,,CLR,0.00,VWS V14.00,2013-07-19 20:18:00,
2013-07-19 16:23:00,90.7,72.9,29.71,West,271,1.0,5.0,56,0.00,,CLR,0.00,VWS V14.00,2013-07-19 20:23:00,
2013-07-19 16:28:00,90.7,72.3,29.71,WSW,257,2.0,4.0,55,0.00,,CLR,0.00,VWS V14.00,2013-07-19 20:28:00,
2013-07-19 16:33:00,90.7,72.3,29.70,WNW,296,2.0,3.0,55,0.00,,CLR,0.00,VWS V14.00,2013-07-19 20:33:00,
2013-07-19 16:38:00,90.3,73.0,29.70,WSW,249,3.0,3.0,57,0.00,,FEW060,0.00,VWS V14.00,2013-07-19 20:38:00,
2013-07-19 16:43:00,90.3,73.0,29.70,West,262,4.0,5.0,57,0.00,,FEW060,0.00,VWS V14.00,2013-07-19 20:43:00,
2013-07-19 16:48:00,90.5,73.2,29.70,West,259,4.0,5.0,57,0.00,,FEW060,0.00,VWS V14.00,2013-07-19 20:48:00,
2013-07-19 16:53:00,90.7,72.9,29.70,West,260,3.0,3.0,56,0.00,,FEW060,0.00,VWS V14.00,2013-07-19 20:53:00,
2013-07-19 16:58:00,90.7,74.4,29.70,WSW,256,3.0,3.0,59,0.00,,FEW060,0.00,VWS V14.00,2013-07-19 20:58:00,
2013-07-19 17:03:00,90.3,73.0,29.70,WNW,286,3.0,5.0,57,0.00,,FEW060,0.00,VWS V14.00,2013-07-19 21:03:00,
2013-07-19 17:08:00,89.9,72.1,29.70,SSW,213,3.0,3.0,56,0.00,,FEW060,0.00,VWS V14.00,2013-07-19 21:08:00,
2013-07-19 17:13:00,89.5,73.3,29.70,West,281,2.0,5.0,59,0.00,,FEW060,0.00,VWS V14.00,2013-07-19 21:13:00,
2013-07-19 17:18:00,89.7,72.4,29.69,WNW,283,4.0,5.0,57,0.00,,FEW060,0.00,VWS V14.00,2013-07-19 21:18:00,
2013-07-19 17:23:00,89.9,72.1,29.69,West,264,2.0,4.0,56,0.00,,FEW060,0.00,VWS V14.00,2013-07-19 21:23:00,
2013-07-19 17:28:00,89.9,72.1,29.69,West,271,2.0,2.0,56,0.00,,FEW060,0.00,VWS V14.00,2013-07-19 21:28:00,
2013-07-19 17:33:00,89.3,72.6,29.69,West,278,2.0,4.0,58,0.00,,FEW060,0.00,VWS V14.00,2013-07-19 21:33:00,
2013-07-19 17:38:00,89.5,72.8,29.69,West,261,1.0,3.0,58,0.00,,,0.00,VWS V14.00,2013-07-19 21:38:00,
2013-07-19 17:43:00,89.5,73.3,29.69,West,269,4.0,5.0,59,0.00,,,0.00,VWS V14.00,2013-07-19 21:43:00,
2013-07-19 17:48:00,89.5,72.8,29.68,West,263,3.0,4.0,58,0.00,,,0.00,VWS V14.00,2013-07-19 21:48:00,
2013-07-19 17:53:00,89.5,73.3,29.68,West,281,1.0,5.0,59,0.00,,,0.00,VWS V14.00,2013-07-19 21:53:00,
2013-07-19 17:58:00,89.5,74.3,29.68,SSW,211,2.0,2.0,61,0.00,,,0.00,VWS V14.00,2013-07-19 21:58:00,
2013-07-19 18:03:00,89.3,75.1,29.68,SSW,204,1.0,1.0,63,0.00,,,0.00,VWS V14.00,2013-07-19 22:03:00,
2013-07-19 18:08:00,89.0,73.8,29.68,West,261,0.0,2.0,61,0.00,,,0.00,VWS V14.00,2013-07-19 22:08:00,
2013-07-19 18:13:00,88.8,74.1,29.68,ESE,115,1.0,2.0,62,0.00,,,0.00,VWS V14.00,2013-07-19 22:13:00,
2013-07-19 18:18:00,88.8,74.1,29.68,SW,221,3.0,6.0,62,0.00,,,0.00,VWS V14.00,2013-07-19 22:18:00,
2013-07-19 18:23:00,88.8,73.1,29.68,West,275,3.0,3.0,60,0.00,,,0.00,VWS V14.00,2013-07-19 22:23:00,
2013-07-19 18:28:00,88.8,74.1,29.68,SW,221,1.0,4.0,62,0.00,,,0.00,VWS V14.00,2013-07-19 22:28:00,
2013-07-19 18:33:00,88.6,73.4,29.69,SW,232,1.0,1.0,61,0.00,,,0.00,VWS V14.00,2013-07-19 22:33:00,
2013-07-19 18:38:00,88.4,73.7,29.69,SW,223,1.0,2.0,62,0.00,,FEW055,0.00,VWS V14.00,2013-07-19 22:38:00,
2013-07-19 18:43:00,88.2,73.6,29.69,SW,234,0.0,2.0,62,0.00,,FEW055,0.00,VWS V14.00,2013-07-19 22:43:00,
2013-07-19 18:48:00,88.0,74.3,29.69,SW,234,0.0,2.0,64,0.00,,FEW055,0.00,VWS V14.00,2013-07-19 22:48:00,
2013-07-19 18:53:00,87.8,74.1,29.69,SW,234,1.0,1.0,64,0.00,,FEW055,0.00,VWS V14.00,2013-07-19 22:53:00,
2013-07-19 18:58:00,87.6,73.9,29.69,SW,234,2.0,2.0,64,0.00,,FEW055,0.00,VWS V14.00,2013-07-19 22:58:00,
2013-07-19 19:03:00,87.6,73.9,29.69,SW,226,1.0,3.0,64,0.00,,FEW055,0.00,VWS V14.00,2013-07-19 23:03:00,
2013-07-19 19:08:00,87.4,73.7,29.69,West,260,0.0,1.0,64,0.00,,FEW055,0.00,VWS V14.00,2013-07-19 23:08:00,
2013-07-19 19:13:00,87.4,73.3,29.69,West,279,2.0,2.0,63,0.00,,FEW055,0.00,VWS V14.00,2013-07-19 23:13:00,
2013-07-19 19:18:00,87.4,73.7,29.69,West,279,0.0,1.0,64,0.00,,FEW055,0.00,VWS V14.00,2013-07-19 23:18:00,
2013-07-19 19:23:00,87.4,73.7,29.69,West,279,1.0,2.0,64,0.00,,FEW055,0.00,VWS V14.00,2013-07-19 23:23:00,
2013-07-19 19:28:00,87.4,73.7,29.69,West,279,0.0,1.0,64,0.00,,FEW055,0.00,VWS V14.00,2013-07-19 23:28:00,
2013-07-19 19:33:00,87.4,73.3,29.70,West,278,0.0,1.0,63,0.00,,CLR,0.00,VWS V14.00,2013-07-19 23:33:00,
2013-07-19 19:38:00,87.2,73.1,29.70,West,278,0.0,1.0,63,0.00,,CLR,0.00,VWS V14.00,2013-07-19 23:38:00,
2013-07-19 19:43:00,87.2,73.1,29.70,SW,217,0.0,4.0,63,0.00,,CLR,0.00,VWS V14.00,2013-07-19 23:43:00,
2013-07-19 19:49:00,87.0,72.9,29.70,ESE,107,0.0,2.0,63,0.00,,CLR,0.00,VWS V14.00,2013-07-19 23:49:00,
2013-07-19 19:54:00,87.0,73.4,29.70,SSW,213,1.0,1.0,64,0.00,,CLR,0.00,VWS V14.00,2013-07-19 23:54:00,
2013-07-19 19:59:00,86.7,73.1,29.70,SSW,213,0.0,1.0,64,0.00,,CLR,0.00,VWS V14.00,2013-07-19 23:59:00,
2013-07-19 20:04:00,86.7,72.6,29.70,SSW,213,0.0,1.0,63,0.00,,CLR,0.00,VWS V14.00,2013-07-20 00:04:00,
2013-07-19 20:09:00,86.5,72.4,29.70,West,259,0.0,0.0,63,0.00,,CLR,0.00,VWS V14.00,2013-07-20 00:09:00,
2013-07-19 20:14:00,86.5,72.9,29.70,West,259,0.0,1.0,64,0.00,,CLR,0.00,VWS V14.00,2013-07-20 00:14:00,
2013-07-19 20:19:00,86.3,72.7,29.69,West,260,0.0,1.0,64,0.00,,CLR,0.00,VWS V14.00,2013-07-20 00:19:00,
2013-07-19 20:24:00,86.1,72.5,29.69,WSW,246,2.0,2.0,64,0.00,,CLR,0.00,VWS V14.00,2013-07-20 00:24:00,
2013-07-19 20:29:00,86.1,73.0,29.69,WSW,246,0.0,1.0,65,0.00,,CLR,0.00,VWS V14.00,2013-07-20 00:29:00,
2013-07-19 20:34:00,85.9,72.8,29.69,SW,232,1.0,2.0,65,0.00,,CLR,0.00,VWS V14.00,2013-07-20 00:34:00,
2013-07-19 20:39:00,85.7,72.6,29.69,SW,232,0.0,1.0,65,0.00,,CLR,0.00,VWS V14.00,2013-07-20 00:39:00,
2013-07-19 20:44:00,85.5,72.4,29.69,SW,236,0.0,1.0,65,0.00,,CLR,0.00,VWS V14.00,2013-07-20 00:44:00,
2013-07-19 20:49:00,85.5,72.8,29.70,SW,223,3.0,4.0,66,0.00,,CLR,0.00,VWS V14.00,2013-07-20 00:49:00,
2013-07-19 20:54:00,85.3,72.7,29.70,West,262,1.0,2.0,66,0.00,,CLR,0.00,VWS V14.00,2013-07-20 00:54:00,
2013-07-19 20:59:00,85.3,72.7,29.70,SW,232,0.0,1.0,66,0.00,,CLR,0.00,VWS V14.00,2013-07-20 00:59:00,
2013-07-19 21:04:00,85.3,72.7,29.71,SW,232,2.0,2.0,66,0.00,,CLR,0.00,VWS V14.00,2013-07-20 01:04:00,
2013-07-19 21:09:00,85.1,72.5,29.71,NW,309,2.0,6.0,66,0.00,,CLR,0.00,VWS V14.00,2013-07-20 01:09:00,
2013-07-19 21:14:00,85.1,72.5,29.71,SW,227,2.0,2.0,66,0.00,,CLR,0.00,VWS V14.00,2013-07-20 01:14:00,
2013-07-19 21:19:00,85.1,72.5,29.72,West,278,1.0,4.0,66,0.00,,CLR,0.00,VWS V14.00,2013-07-20 01:19:00,
2013-07-19 21:24:00,85.1,72.0,29.72,West,261,0.0,2.0,65,0.00,,CLR,0.00,VWS V14.00,2013-07-20 01:24:00,
2013-07-19 21:29:00,85.3,72.2,29.72,WNW,302,2.0,4.0,65,0.00,,CLR,0.00,VWS V14.00,2013-07-20 01:29:00,
2013-07-19 21:34:00,85.3,72.2,29.73,SW,232,1.0,2.0,65,0.00,,CLR,0.00,VWS V14.00,2013-07-20 01:34:00,
2013-07-19 21:39:00,85.3,72.2,29.73,West,278,0.0,1.0,65,0.00,,CLR,0.00,VWS V14.00,2013-07-20 01:39:00,
2013-07-19 21:44:00,85.3,72.2,29.73,WSW,253,1.0,2.0,65,0.00,,CLR,0.00,VWS V14.00,2013-07-20 01:44:00,
2013-07-19 21:49:00,85.1,72.0,29.72,West,264,1.0,2.0,65,0.00,,CLR,0.00,VWS V14.00,2013-07-20 01:49:00,
2013-07-19 21:54:00,85.1,72.0,29.72,West,264,1.0,1.0,65,0.00,,CLR,0.00,VWS V14.00,2013-07-20 01:54:00,
2013-07-19 21:59:00,85.1,72.0,29.72,West,264,4.0,4.0,65,0.00,,CLR,0.00,VWS V14.00,2013-07-20 01:59:00,
2013-07-19 22:04:00,84.9,71.8,29.72,WSW,244,1.0,2.0,65,0.00,,CLR,0.00,VWS V14.00,2013-07-20 02:04:00,
2013-07-19 22:09:00,84.9,71.8,29.72,WSW,243,2.0,2.0,65,0.00,,CLR,0.00,VWS V14.00,2013-07-20 02:09:00,
2013-07-19 22:14:00,84.9,72.3,29.72,SSW,209,0.0,2.0,66,0.00,,CLR,0.00,VWS V14.00,2013-07-20 02:14:00,
2013-07-19 22:19:00,84.7,72.1,29.71,SW,227,1.0,2.0,66,0.00,,CLR,0.00,VWS V14.00,2013-07-20 02:19:00,
2013-07-19 22:24:00,84.7,72.1,29.71,WNW,283,3.0,4.0,66,0.00,,CLR,0.00,VWS V14.00,2013-07-20 02:24:00,
2013-07-19 22:29:00,84.7,72.1,29.71,WNW,283,1.0,2.0,66,0.00,,CLR,0.00,VWS V14.00,2013-07-20 02:29:00,
2013-07-19 22:34:00,84.7,72.5,29.71,WNW,283,1.0,2.0,67,0.00,,CLR,0.00,VWS V14.00,2013-07-20 02:34:00,
2013-07-19 22:39:00,84.7,72.5,29.71,WNW,294,0.0,1.0,67,0.00,,CLR,0.00,VWS V14.00,2013-07-20 02:39:00,
2013-07-19 22:44:00,84.7,72.5,29.71,SE,139,0.0,1.0,67,0.00,,CLR,0.00,VWS V14.00,2013-07-20 02:44:00,
2013-07-19 22:49:00,84.7,72.5,29.71,WNW,287,1.0,2.0,67,0.00,,CLR,0.00,VWS V14.00,2013-07-20 02:49:00,
2013-07-19 22:54:00,84.5,72.3,29.71,West,267,1.0,2.0,67,0.00,,CLR,0.00,VWS V14.00,2013-07-20 02:54:00,
2013-07-19 22:59:00,84.5,72.3,29.71,SSW,213,2.0,2.0,67,0.00,,CLR,0.00,VWS V14.00,2013-07-20 02:59:00,
2013-07-19 23:04:00,84.5,72.8,29.70,West,281,0.0,1.0,68,0.00,,CLR,0.00,VWS V14.00,2013-07-20 03:04:00,
2013-07-19 23:09:00,84.5,72.8,29.70,WSW,251,0.0,1.0,68,0.00,,CLR,0.00,VWS V14.00,2013-07-20 03:09:00,
2013-07-19 23:14:00,84.3,72.6,29.70,SW,234,0.0,1.0,68,0.00,,CLR,0.00,VWS V14.00,2013-07-20 03:14:00,
2013-07-19 23:20:00,84.3,73.0,29.70,SW,234,0.0,1.0,69,0.00,,CLR,0.00,VWS V14.00,2013-07-20 03:20:00,
2013-07-19 23:25:00,84.1,72.8,29.70,SW,224,0.0,0.0,69,0.00,,CLR,0.00,VWS V14.00,2013-07-20 03:25:00,
2013-07-19 23:30:00,84.1,73.3,29.70,SW,224,1.0,2.0,70,0.00,,CLR,0.00,VWS V14.00,2013-07-20 03:30:00,
2013-07-19 23:35:00,84.0,73.2,29.69,SSW,211,0.0,1.0,70,0.00,,CLR,0.00,VWS V14.00,2013-07-20 03:35:00,
2013-07-19 23:40:00,83.8,73.4,29.69,SW,233,0.0,0.0,71,0.00,,CLR,0.00,VWS V14.00,2013-07-20 03:40:00,
2013-07-19 23:45:00,83.8,73.4,29.69,SW,233,1.0,2.0,71,0.00,,CLR,0.00,VWS V14.00,2013-07-20 03:45:00,
2013-07-19 23:50:00,83.6,73.2,29.69,WSW,237,1.0,2.0,71,0.00,,CLR,0.00,VWS V14.00,2013-07-20 03:50:00,
2013-07-19 23:55:00,83.4,73.4,29.69,WSW,237,0.0,1.0,72,0.00,,CLR,0.00,VWS V14.00,2013-07-20 03:55:00,